sensor_id;sensor_type;location;lat;lon;timestamp;P1;durP1;ratioP1;P2;durP2;ratioP2
14342;SDS011;7255;53.596;9.960;2023-03-09T00:00:48;6.73;;;5.73;;
14342;SDS011;7255;53.596;9.960;2023-03-09T00:03:15;6.03;;;5.53;;
14342;SDS011;7255;53.596;9.960;2023-03-09T00:05:41;7.33;;;5.27;;
14342;SDS011;7255;53.596;9.960;2023-03-09T00:08:09;8.70;;;5.63;;
14342;SDS011;7255;53.596;9.960;2023-03-09T00:10:39;6.13;;;5.53;;
14342;SDS011;7255;53.596;9.960;2023-03-09T00:13:06;7.43;;;5.70;;
14342;SDS011;7255;53.596;9.960;2023-03-09T00:15:32;7.13;;;5.93;;
14342;SDS011;7255;53.596;9.960;2023-03-09T00:17:59;6.23;;;5.63;;
14342;SDS011;7255;53.596;9.960;2023-03-09T00:20:25;5.93;;;5.23;;
14342;SDS011;7255;53.596;9.960;2023-03-09T00:22:52;7.43;;;5.87;;
14342;SDS011;7255;53.596;9.960;2023-03-09T00:25:20;6.23;;;5.17;;
14342;SDS011;7255;53.596;9.960;2023-03-09T00:27:48;5.30;;;4.70;;
14342;SDS011;7255;53.596;9.960;2023-03-09T00:30:16;8.03;;;5.97;;
14342;SDS011;7255;53.596;9.960;2023-03-09T00:32:44;6.13;;;5.40;;
14342;SDS011;7255;53.596;9.960;2023-03-09T00:35:11;6.87;;;6.10;;
14342;SDS011;7255;53.596;9.960;2023-03-09T00:37:38;11.20;;;6.17;;
14342;SDS011;7255;53.596;9.960;2023-03-09T00:40:05;7.80;;;6.00;;
14342;SDS011;7255;53.596;9.960;2023-03-09T00:42:33;7.73;;;5.23;;
14342;SDS011;7255;53.596;9.960;2023-03-09T00:45:00;6.87;;;5.50;;
14342;SDS011;7255;53.596;9.960;2023-03-09T00:47:27;7.83;;;5.40;;
14342;SDS011;7255;53.596;9.960;2023-03-09T00:49:53;10.20;;;6.17;;
14342;SDS011;7255;53.596;9.960;2023-03-09T00:52:19;9.03;;;6.17;;
14342;SDS011;7255;53.596;9.960;2023-03-09T00:54:46;6.90;;;5.53;;
14342;SDS011;7255;53.596;9.960;2023-03-09T00:57:12;6.13;;;5.50;;
14342;SDS011;7255;53.596;9.960;2023-03-09T00:59:42;6.87;;;6.07;;
14342;SDS011;7255;53.596;9.960;2023-03-09T01:02:10;6.97;;;5.57;;
14342;SDS011;7255;53.596;9.960;2023-03-09T01:04:37;7.77;;;5.07;;
14342;SDS011;7255;53.596;9.960;2023-03-09T01:07:03;7.20;;;5.70;;
14342;SDS011;7255;53.596;9.960;2023-03-09T01:09:30;6.10;;;5.50;;
14342;SDS011;7255;53.596;9.960;2023-03-09T01:11:57;6.20;;;5.27;;
14342;SDS011;7255;53.596;9.960;2023-03-09T01:14:23;6.27;;;5.60;;
14342;SDS011;7255;53.596;9.960;2023-03-09T01:16:49;6.37;;;5.77;;
14342;SDS011;7255;53.596;9.960;2023-03-09T01:19:17;6.37;;;5.77;;
14342;SDS011;7255;53.596;9.960;2023-03-09T01:21:43;6.50;;;5.53;;
14342;SDS011;7255;53.596;9.960;2023-03-09T01:24:09;9.23;;;5.90;;
14342;SDS011;7255;53.596;9.960;2023-03-09T01:26:36;5.57;;;4.87;;
14342;SDS011;7255;53.596;9.960;2023-03-09T01:29:02;6.90;;;5.90;;
14342;SDS011;7255;53.596;9.960;2023-03-09T01:31:28;5.80;;;5.30;;
14342;SDS011;7255;53.596;9.960;2023-03-09T01:33:55;7.67;;;5.87;;
14342;SDS011;7255;53.596;9.960;2023-03-09T01:36:22;6.60;;;5.90;;
14342;SDS011;7255;53.596;9.960;2023-03-09T01:38:49;6.47;;;5.67;;
14342;SDS011;7255;53.596;9.960;2023-03-09T01:41:16;5.77;;;4.93;;
14342;SDS011;7255;53.596;9.960;2023-03-09T01:43:44;8.43;;;6.60;;
14342;SDS011;7255;53.596;9.960;2023-03-09T01:46:31;6.70;;;5.93;;
14342;SDS011;7255;53.596;9.960;2023-03-09T01:49:05;5.93;;;5.33;;
14342;SDS011;7255;53.596;9.960;2023-03-09T01:51:40;7.77;;;5.53;;
14342;SDS011;7255;53.596;9.960;2023-03-09T01:54:13;6.63;;;5.77;;
14342;SDS011;7255;53.596;9.960;2023-03-09T01:56:44;9.87;;;6.27;;
14342;SDS011;7255;53.596;9.960;2023-03-09T01:59:11;7.77;;;6.37;;
14342;SDS011;7255;53.596;9.960;2023-03-09T02:01:39;6.90;;;6.00;;
14342;SDS011;7255;53.596;9.960;2023-03-09T02:04:08;7.47;;;5.87;;
14342;SDS011;7255;53.596;9.960;2023-03-09T02:06:40;6.50;;;5.90;;
14342;SDS011;7255;53.596;9.960;2023-03-09T02:09:08;6.33;;;5.67;;
14342;SDS011;7255;53.596;9.960;2023-03-09T02:11:41;7.53;;;6.73;;
14342;SDS011;7255;53.596;9.960;2023-03-09T02:14:09;6.67;;;5.77;;
14342;SDS011;7255;53.596;9.960;2023-03-09T02:16:35;8.53;;;6.20;;
14342;SDS011;7255;53.596;9.960;2023-03-09T02:19:01;5.70;;;5.20;;
14342;SDS011;7255;53.596;9.960;2023-03-09T02:21:33;6.23;;;5.63;;
14342;SDS011;7255;53.596;9.960;2023-03-09T02:24:09;7.50;;;5.63;;
14342;SDS011;7255;53.596;9.960;2023-03-09T02:26:41;8.20;;;5.80;;
14342;SDS011;7255;53.596;9.960;2023-03-09T02:29:13;8.83;;;6.20;;
14342;SDS011;7255;53.596;9.960;2023-03-09T02:31:40;8.77;;;6.00;;
14342;SDS011;7255;53.596;9.960;2023-03-09T02:34:06;6.40;;;5.80;;
14342;SDS011;7255;53.596;9.960;2023-03-09T02:36:33;8.47;;;6.43;;
14342;SDS011;7255;53.596;9.960;2023-03-09T02:39:00;7.83;;;6.03;;
14342;SDS011;7255;53.596;9.960;2023-03-09T02:41:32;6.87;;;6.00;;
14342;SDS011;7255;53.596;9.960;2023-03-09T02:43:58;7.80;;;5.90;;
14342;SDS011;7255;53.596;9.960;2023-03-09T02:46:26;6.20;;;5.60;;
14342;SDS011;7255;53.596;9.960;2023-03-09T02:48:52;7.80;;;6.03;;
14342;SDS011;7255;53.596;9.960;2023-03-09T02:51:20;7.10;;;5.87;;
14342;SDS011;7255;53.596;9.960;2023-03-09T02:53:46;7.17;;;5.53;;
14342;SDS011;7255;53.596;9.960;2023-03-09T02:56:13;7.83;;;6.17;;
14342;SDS011;7255;53.596;9.960;2023-03-09T02:58:39;7.00;;;6.10;;
14342;SDS011;7255;53.596;9.960;2023-03-09T03:01:05;7.10;;;6.47;;
14342;SDS011;7255;53.596;9.960;2023-03-09T03:03:33;6.73;;;6.07;;
14342;SDS011;7255;53.596;9.960;2023-03-09T03:05:59;6.63;;;5.50;;
14342;SDS011;7255;53.596;9.960;2023-03-09T03:08:26;6.73;;;6.13;;
14342;SDS011;7255;53.596;9.960;2023-03-09T03:10:52;7.30;;;5.57;;
14342;SDS011;7255;53.596;9.960;2023-03-09T03:13:18;8.13;;;6.30;;
14342;SDS011;7255;53.596;9.960;2023-03-09T03:15:45;8.20;;;6.13;;
14342;SDS011;7255;53.596;9.960;2023-03-09T03:18:11;6.10;;;5.40;;
14342;SDS011;7255;53.596;9.960;2023-03-09T03:20:38;6.83;;;6.23;;
14342;SDS011;7255;53.596;9.960;2023-03-09T03:23:05;8.17;;;6.17;;
14342;SDS011;7255;53.596;9.960;2023-03-09T03:25:33;9.43;;;6.57;;
14342;SDS011;7255;53.596;9.960;2023-03-09T03:28:00;6.47;;;5.93;;
14342;SDS011;7255;53.596;9.960;2023-03-09T03:30:29;8.13;;;6.40;;
14342;SDS011;7255;53.596;9.960;2023-03-09T03:32:55;7.10;;;5.67;;
14342;SDS011;7255;53.596;9.960;2023-03-09T03:35:21;8.60;;;6.33;;
14342;SDS011;7255;53.596;9.960;2023-03-09T03:37:49;6.80;;;6.07;;
14342;SDS011;7255;53.596;9.960;2023-03-09T03:40:16;6.83;;;6.03;;
14342;SDS011;7255;53.596;9.960;2023-03-09T03:42:44;6.90;;;6.07;;
14342;SDS011;7255;53.596;9.960;2023-03-09T03:45:10;6.77;;;6.03;;
14342;SDS011;7255;53.596;9.960;2023-03-09T03:47:36;8.87;;;6.30;;
14342;SDS011;7255;53.596;9.960;2023-03-09T03:50:03;6.37;;;5.77;;
14342;SDS011;7255;53.596;9.960;2023-03-09T03:52:30;8.10;;;5.53;;
14342;SDS011;7255;53.596;9.960;2023-03-09T03:54:58;7.17;;;6.47;;
14342;SDS011;7255;53.596;9.960;2023-03-09T03:57:24;6.63;;;6.00;;
14342;SDS011;7255;53.596;9.960;2023-03-09T03:59:51;7.80;;;6.37;;
14342;SDS011;7255;53.596;9.960;2023-03-09T04:02:17;7.73;;;6.63;;
14342;SDS011;7255;53.596;9.960;2023-03-09T04:04:43;7.27;;;6.43;;
14342;SDS011;7255;53.596;9.960;2023-03-09T04:07:09;7.67;;;6.90;;
14342;SDS011;7255;53.596;9.960;2023-03-09T04:09:36;7.53;;;6.80;;
14342;SDS011;7255;53.596;9.960;2023-03-09T04:12:04;8.10;;;6.47;;
14342;SDS011;7255;53.596;9.960;2023-03-09T04:14:30;7.30;;;6.50;;
14342;SDS011;7255;53.596;9.960;2023-03-09T04:16:57;7.30;;;6.53;;
14342;SDS011;7255;53.596;9.960;2023-03-09T04:19:24;9.13;;;6.93;;
14342;SDS011;7255;53.596;9.960;2023-03-09T04:21:50;8.17;;;7.23;;
14342;SDS011;7255;53.596;9.960;2023-03-09T04:24:17;11.30;;;6.23;;
14342;SDS011;7255;53.596;9.960;2023-03-09T04:26:43;8.77;;;6.77;;
14342;SDS011;7255;53.596;9.960;2023-03-09T04:29:11;7.90;;;6.67;;
14342;SDS011;7255;53.596;9.960;2023-03-09T04:31:37;7.47;;;6.70;;
14342;SDS011;7255;53.596;9.960;2023-03-09T04:34:04;9.13;;;7.90;;
14342;SDS011;7255;53.596;9.960;2023-03-09T04:36:30;8.53;;;7.00;;
14342;SDS011;7255;53.596;9.960;2023-03-09T04:38:56;8.80;;;6.90;;
14342;SDS011;7255;53.596;9.960;2023-03-09T04:41:23;10.10;;;8.17;;
14342;SDS011;7255;53.596;9.960;2023-03-09T04:43:49;9.53;;;7.20;;
14342;SDS011;7255;53.596;9.960;2023-03-09T04:46:17;9.63;;;7.07;;
14342;SDS011;7255;53.596;9.960;2023-03-09T04:48:43;9.87;;;7.57;;
14342;SDS011;7255;53.596;9.960;2023-03-09T04:51:09;8.77;;;7.47;;
14342;SDS011;7255;53.596;9.960;2023-03-09T04:53:35;10.43;;;7.50;;
14342;SDS011;7255;53.596;9.960;2023-03-09T04:56:02;10.20;;;7.70;;
14342;SDS011;7255;53.596;9.960;2023-03-09T04:58:28;8.47;;;6.87;;
14342;SDS011;7255;53.596;9.960;2023-03-09T05:00:55;9.73;;;7.50;;
14342;SDS011;7255;53.596;9.960;2023-03-09T05:03:22;9.23;;;8.13;;
14342;SDS011;7255;53.596;9.960;2023-03-09T05:05:49;11.90;;;7.70;;
14342;SDS011;7255;53.596;9.960;2023-03-09T05:08:15;11.47;;;7.77;;
14342;SDS011;7255;53.596;9.960;2023-03-09T05:10:41;8.60;;;7.80;;
14342;SDS011;7255;53.596;9.960;2023-03-09T05:13:08;10.23;;;8.53;;
14342;SDS011;7255;53.596;9.960;2023-03-09T05:15:36;10.47;;;7.90;;
14342;SDS011;7255;53.596;9.960;2023-03-09T05:18:03;8.73;;;7.90;;
14342;SDS011;7255;53.596;9.960;2023-03-09T05:20:31;8.90;;;7.50;;
14342;SDS011;7255;53.596;9.960;2023-03-09T05:22:58;12.57;;;8.50;;
14342;SDS011;7255;53.596;9.960;2023-03-09T05:25:24;9.70;;;8.70;;
14342;SDS011;7255;53.596;9.960;2023-03-09T05:27:51;8.37;;;7.27;;
14342;SDS011;7255;53.596;9.960;2023-03-09T05:30:17;10.10;;;8.37;;
14342;SDS011;7255;53.596;9.960;2023-03-09T05:32:45;9.47;;;8.07;;
14342;SDS011;7255;53.596;9.960;2023-03-09T05:35:11;9.83;;;7.97;;
14342;SDS011;7255;53.596;9.960;2023-03-09T05:37:39;10.63;;;8.20;;
14342;SDS011;7255;53.596;9.960;2023-03-09T05:40:05;8.37;;;6.77;;
14342;SDS011;7255;53.596;9.960;2023-03-09T05:42:33;11.23;;;8.60;;
14342;SDS011;7255;53.596;9.960;2023-03-09T05:44:59;11.57;;;8.07;;
14342;SDS011;7255;53.596;9.960;2023-03-09T05:47:28;9.90;;;8.90;;
14342;SDS011;7255;53.596;9.960;2023-03-09T05:49:54;11.50;;;8.40;;
14342;SDS011;7255;53.596;9.960;2023-03-09T05:52:20;10.37;;;8.10;;
14342;SDS011;7255;53.596;9.960;2023-03-09T05:54:48;9.53;;;8.03;;
14342;SDS011;7255;53.596;9.960;2023-03-09T05:57:15;11.50;;;8.67;;
14342;SDS011;7255;53.596;9.960;2023-03-09T05:59:41;10.63;;;8.77;;
14342;SDS011;7255;53.596;9.960;2023-03-09T06:02:08;12.77;;;9.30;;
14342;SDS011;7255;53.596;9.960;2023-03-09T06:04:34;10.73;;;9.07;;
14342;SDS011;7255;53.596;9.960;2023-03-09T06:07:01;11.50;;;9.00;;
14342;SDS011;7255;53.596;9.960;2023-03-09T06:09:27;14.17;;;9.40;;
14342;SDS011;7255;53.596;9.960;2023-03-09T06:11:55;9.67;;;8.67;;
14342;SDS011;7255;53.596;9.960;2023-03-09T06:14:21;13.07;;;9.40;;
14342;SDS011;7255;53.596;9.960;2023-03-09T06:16:47;10.97;;;9.10;;
14342;SDS011;7255;53.596;9.960;2023-03-09T06:19:13;15.77;;;10.80;;
14342;SDS011;7255;53.596;9.960;2023-03-09T06:21:40;13.23;;;9.43;;
14342;SDS011;7255;53.596;9.960;2023-03-09T06:24:06;13.67;;;10.70;;
14342;SDS011;7255;53.596;9.960;2023-03-09T06:26:34;13.40;;;9.60;;
14342;SDS011;7255;53.596;9.960;2023-03-09T06:29:02;11.30;;;9.60;;
14342;SDS011;7255;53.596;9.960;2023-03-09T06:31:29;13.40;;;8.87;;
14342;SDS011;7255;53.596;9.960;2023-03-09T06:33:57;11.57;;;9.07;;
14342;SDS011;7255;53.596;9.960;2023-03-09T06:36:23;11.27;;;9.83;;
14342;SDS011;7255;53.596;9.960;2023-03-09T06:38:50;13.57;;;9.90;;
14342;SDS011;7255;53.596;9.960;2023-03-09T06:41:17;14.90;;;9.33;;
14342;SDS011;7255;53.596;9.960;2023-03-09T06:43:52;11.37;;;9.13;;
14342;SDS011;7255;53.596;9.960;2023-03-09T06:46:19;15.77;;;9.87;;
14342;SDS011;7255;53.596;9.960;2023-03-09T06:48:46;12.77;;;9.30;;
14342;SDS011;7255;53.596;9.960;2023-03-09T06:51:12;14.07;;;10.40;;
14342;SDS011;7255;53.596;9.960;2023-03-09T06:53:38;14.20;;;9.47;;
14342;SDS011;7255;53.596;9.960;2023-03-09T06:56:05;13.07;;;10.03;;
14342;SDS011;7255;53.596;9.960;2023-03-09T06:58:32;13.13;;;9.00;;
14342;SDS011;7255;53.596;9.960;2023-03-09T07:01:04;14.47;;;9.87;;
14342;SDS011;7255;53.596;9.960;2023-03-09T07:03:33;10.47;;;8.60;;
14342;SDS011;7255;53.596;9.960;2023-03-09T07:05:59;13.73;;;10.00;;
14342;SDS011;7255;53.596;9.960;2023-03-09T07:08:25;14.37;;;9.63;;
14342;SDS011;7255;53.596;9.960;2023-03-09T07:10:51;12.30;;;8.70;;
14342;SDS011;7255;53.596;9.960;2023-03-09T07:13:18;13.40;;;9.97;;
14342;SDS011;7255;53.596;9.960;2023-03-09T07:15:44;14.87;;;9.50;;
14342;SDS011;7255;53.596;9.960;2023-03-09T07:18:10;12.33;;;10.40;;
14342;SDS011;7255;53.596;9.960;2023-03-09T07:20:38;13.53;;;10.50;;
14342;SDS011;7255;53.596;9.960;2023-03-09T07:23:06;11.30;;;8.77;;
14342;SDS011;7255;53.596;9.960;2023-03-09T07:25:32;14.50;;;9.87;;
14342;SDS011;7255;53.596;9.960;2023-03-09T07:28:01;13.37;;;10.00;;
14342;SDS011;7255;53.596;9.960;2023-03-09T07:30:28;13.57;;;9.93;;
14342;SDS011;7255;53.596;9.960;2023-03-09T07:32:55;14.43;;;9.93;;
14342;SDS011;7255;53.596;9.960;2023-03-09T07:35:21;14.47;;;9.40;;
14342;SDS011;7255;53.596;9.960;2023-03-09T07:37:49;13.83;;;10.63;;
14342;SDS011;7255;53.596;9.960;2023-03-09T07:40:16;12.60;;;9.50;;
14342;SDS011;7255;53.596;9.960;2023-03-09T07:42:43;12.43;;;9.63;;
14342;SDS011;7255;53.596;9.960;2023-03-09T07:45:11;12.90;;;10.43;;
14342;SDS011;7255;53.596;9.960;2023-03-09T07:47:37;13.83;;;10.10;;
14342;SDS011;7255;53.596;9.960;2023-03-09T07:50:04;12.63;;;10.07;;
14342;SDS011;7255;53.596;9.960;2023-03-09T07:52:31;18.50;;;10.00;;
14342;SDS011;7255;53.596;9.960;2023-03-09T07:54:59;12.27;;;9.37;;
14342;SDS011;7255;53.596;9.960;2023-03-09T07:57:29;15.03;;;9.43;;
14342;SDS011;7255;53.596;9.960;2023-03-09T07:59:56;11.33;;;9.70;;
14342;SDS011;7255;53.596;9.960;2023-03-09T08:02:23;12.60;;;9.43;;
14342;SDS011;7255;53.596;9.960;2023-03-09T08:04:50;12.43;;;9.53;;
14342;SDS011;7255;53.596;9.960;2023-03-09T08:07:17;13.33;;;9.23;;
14342;SDS011;7255;53.596;9.960;2023-03-09T08:09:44;13.27;;;9.73;;
14342;SDS011;7255;53.596;9.960;2023-03-09T08:12:11;13.07;;;9.87;;
14342;SDS011;7255;53.596;9.960;2023-03-09T08:14:38;12.57;;;9.67;;
14342;SDS011;7255;53.596;9.960;2023-03-09T08:17:04;11.50;;;8.90;;
14342;SDS011;7255;53.596;9.960;2023-03-09T08:19:30;11.00;;;9.10;;
14342;SDS011;7255;53.596;9.960;2023-03-09T08:21:57;10.40;;;8.77;;
14342;SDS011;7255;53.596;9.960;2023-03-09T08:24:24;10.97;;;9.10;;
14342;SDS011;7255;53.596;9.960;2023-03-09T08:26:50;14.57;;;9.93;;
14342;SDS011;7255;53.596;9.960;2023-03-09T08:29:18;14.67;;;8.77;;
14342;SDS011;7255;53.596;9.960;2023-03-09T08:31:44;11.00;;;8.63;;
14342;SDS011;7255;53.596;9.960;2023-03-09T08:34:10;12.03;;;9.03;;
14342;SDS011;7255;53.596;9.960;2023-03-09T08:36:37;13.30;;;9.23;;
14342;SDS011;7255;53.596;9.960;2023-03-09T08:39:03;11.70;;;8.07;;
14342;SDS011;7255;53.596;9.960;2023-03-09T08:41:29;9.47;;;8.27;;
14342;SDS011;7255;53.596;9.960;2023-03-09T08:43:56;10.43;;;8.73;;
14342;SDS011;7255;53.596;9.960;2023-03-09T08:46:24;13.27;;;9.10;;
14342;SDS011;7255;53.596;9.960;2023-03-09T08:48:50;10.73;;;8.50;;
14342;SDS011;7255;53.596;9.960;2023-03-09T08:51:16;12.33;;;8.83;;
14342;SDS011;7255;53.596;9.960;2023-03-09T08:53:43;13.20;;;8.40;;
14342;SDS011;7255;53.596;9.960;2023-03-09T08:56:10;12.73;;;8.10;;
14342;SDS011;7255;53.596;9.960;2023-03-09T08:58:38;10.50;;;7.87;;
14342;SDS011;7255;53.596;9.960;2023-03-09T09:01:05;10.17;;;8.17;;
14342;SDS011;7255;53.596;9.960;2023-03-09T09:03:35;9.17;;;8.07;;
14342;SDS011;7255;53.596;9.960;2023-03-09T09:06:03;11.27;;;8.17;;
14342;SDS011;7255;53.596;9.960;2023-03-09T09:08:31;10.13;;;8.03;;
14342;SDS011;7255;53.596;9.960;2023-03-09T09:10:57;9.03;;;8.13;;
14342;SDS011;7255;53.596;9.960;2023-03-09T09:13:24;9.43;;;7.77;;
14342;SDS011;7255;53.596;9.960;2023-03-09T09:15:51;12.63;;;7.60;;
14342;SDS011;7255;53.596;9.960;2023-03-09T09:18:18;9.43;;;7.00;;
14342;SDS011;7255;53.596;9.960;2023-03-09T09:20:46;12.17;;;7.93;;
14342;SDS011;7255;53.596;9.960;2023-03-09T09:23:13;10.27;;;7.47;;
14342;SDS011;7255;53.596;9.960;2023-03-09T09:25:42;10.67;;;7.67;;
14342;SDS011;7255;53.596;9.960;2023-03-09T09:28:08;8.87;;;7.37;;
14342;SDS011;7255;53.596;9.960;2023-03-09T09:30:35;8.40;;;7.13;;
14342;SDS011;7255;53.596;9.960;2023-03-09T09:33:02;8.23;;;6.90;;
14342;SDS011;7255;53.596;9.960;2023-03-09T09:35:30;10.23;;;7.83;;
14342;SDS011;7255;53.596;9.960;2023-03-09T09:37:57;8.87;;;6.97;;
14342;SDS011;7255;53.596;9.960;2023-03-09T09:40:24;7.90;;;6.27;;
14342;SDS011;7255;53.596;9.960;2023-03-09T09:42:51;7.77;;;6.83;;
14342;SDS011;7255;53.596;9.960;2023-03-09T09:45:27;7.77;;;6.67;;
14342;SDS011;7255;53.596;9.960;2023-03-09T09:47:57;9.87;;;6.07;;
14342;SDS011;7255;53.596;9.960;2023-03-09T09:50:28;7.23;;;6.30;;
14342;SDS011;7255;53.596;9.960;2023-03-09T09:53:03;9.60;;;6.40;;
14342;SDS011;7255;53.596;9.960;2023-03-09T09:55:39;9.37;;;6.57;;
14342;SDS011;7255;53.596;9.960;2023-03-09T09:58:09;7.77;;;6.50;;
14342;SDS011;7255;53.596;9.960;2023-03-09T10:00:45;7.70;;;5.97;;
14342;SDS011;7255;53.596;9.960;2023-03-09T10:03:17;9.83;;;6.33;;
14342;SDS011;7255;53.596;9.960;2023-03-09T10:05:48;6.73;;;6.07;;
14342;SDS011;7255;53.596;9.960;2023-03-09T10:08:29;7.30;;;6.60;;
14342;SDS011;7255;53.596;9.960;2023-03-09T10:11:02;8.23;;;6.67;;
14342;SDS011;7255;53.596;9.960;2023-03-09T10:13:37;7.03;;;6.33;;
14342;SDS011;7255;53.596;9.960;2023-03-09T10:16:07;8.07;;;6.37;;
14342;SDS011;7255;53.596;9.960;2023-03-09T10:18:40;10.03;;;6.20;;
14342;SDS011;7255;53.596;9.960;2023-03-09T10:21:13;7.70;;;5.43;;
14342;SDS011;7255;53.596;9.960;2023-03-09T10:23:47;6.70;;;5.97;;
14342;SDS011;7255;53.596;9.960;2023-03-09T10:26:17;7.07;;;6.20;;
14342;SDS011;7255;53.596;9.960;2023-03-09T10:28:51;7.23;;;5.80;;
14342;SDS011;7255;53.596;9.960;2023-03-09T10:31:22;7.43;;;6.13;;
14342;SDS011;7255;53.596;9.960;2023-03-09T10:33:59;7.13;;;5.67;;
14342;SDS011;7255;53.596;9.960;2023-03-09T10:36:31;8.13;;;5.73;;
14342;SDS011;7255;53.596;9.960;2023-03-09T10:39:02;10.23;;;5.80;;
14342;SDS011;7255;53.596;9.960;2023-03-09T10:41:37;8.33;;;6.33;;
14342;SDS011;7255;53.596;9.960;2023-03-09T10:44:06;7.17;;;5.80;;
14342;SDS011;7255;53.596;9.960;2023-03-09T10:46:52;10.30;;;6.10;;
14342;SDS011;7255;53.596;9.960;2023-03-09T10:49:19;7.00;;;6.03;;
14342;SDS011;7255;53.596;9.960;2023-03-09T10:51:53;6.83;;;6.13;;
14342;SDS011;7255;53.596;9.960;2023-03-09T10:54:25;9.67;;;6.33;;
14342;SDS011;7255;53.596;9.960;2023-03-09T10:56:54;7.70;;;6.67;;
14342;SDS011;7255;53.596;9.960;2023-03-09T10:59:21;6.20;;;5.60;;
14342;SDS011;7255;53.596;9.960;2023-03-09T11:01:49;6.37;;;5.77;;
14342;SDS011;7255;53.596;9.960;2023-03-09T11:04:27;7.07;;;6.37;;
14342;SDS011;7255;53.596;9.960;2023-03-09T11:06:56;8.17;;;6.47;;
14342;SDS011;7255;53.596;9.960;2023-03-09T11:09:28;8.60;;;6.20;;
14342;SDS011;7255;53.596;9.960;2023-03-09T11:12:07;6.70;;;5.90;;
14342;SDS011;7255;53.596;9.960;2023-03-09T11:14:41;7.17;;;5.90;;
14342;SDS011;7255;53.596;9.960;2023-03-09T11:22:59;7.00;;;5.50;;
14342;SDS011;7255;53.596;9.960;2023-03-09T11:25:37;6.97;;;5.87;;
14342;SDS011;7255;53.596;9.960;2023-03-09T11:28:14;7.17;;;6.00;;
14342;SDS011;7255;53.596;9.960;2023-03-09T11:30:47;7.43;;;5.73;;
14342;SDS011;7255;53.596;9.960;2023-03-09T11:33:16;6.67;;;5.80;;
14342;SDS011;7255;53.596;9.960;2023-03-09T11:35:45;7.87;;;6.00;;
14342;SDS011;7255;53.596;9.960;2023-03-09T11:38:16;6.73;;;5.67;;
14342;SDS011;7255;53.596;9.960;2023-03-09T11:40:46;9.47;;;5.73;;
14342;SDS011;7255;53.596;9.960;2023-03-09T11:43:16;8.83;;;6.23;;
14342;SDS011;7255;53.596;9.960;2023-03-09T11:45:46;7.23;;;5.40;;
14342;SDS011;7255;53.596;9.960;2023-03-09T11:48:14;7.07;;;6.00;;
14342;SDS011;7255;53.596;9.960;2023-03-09T11:50:51;6.97;;;6.27;;
14342;SDS011;7255;53.596;9.960;2023-03-09T11:53:24;7.17;;;5.77;;
14342;SDS011;7255;53.596;9.960;2023-03-09T11:55:57;6.93;;;6.23;;
14342;SDS011;7255;53.596;9.960;2023-03-09T11:58:35;7.23;;;6.50;;
14342;SDS011;7255;53.596;9.960;2023-03-09T12:01:08;8.20;;;6.93;;
14342;SDS011;7255;53.596;9.960;2023-03-09T12:03:39;6.80;;;6.10;;
14342;SDS011;7255;53.596;9.960;2023-03-09T12:06:19;8.87;;;6.33;;
14342;SDS011;7255;53.596;9.960;2023-03-09T12:08:52;7.20;;;6.47;;
14342;SDS011;7255;53.596;9.960;2023-03-09T12:11:23;9.97;;;6.53;;
14342;SDS011;7255;53.596;9.960;2023-03-09T12:13:54;7.00;;;6.20;;
14342;SDS011;7255;53.596;9.960;2023-03-09T12:16:25;6.17;;;5.47;;
14342;SDS011;7255;53.596;9.960;2023-03-09T12:18:56;8.90;;;6.17;;
14342;SDS011;7255;53.596;9.960;2023-03-09T12:21:27;8.73;;;5.37;;
14342;SDS011;7255;53.596;9.960;2023-03-09T12:23:57;5.93;;;5.33;;
14342;SDS011;7255;53.596;9.960;2023-03-09T12:26:30;6.47;;;5.20;;
14342;SDS011;7255;53.596;9.960;2023-03-09T12:29:01;6.23;;;5.47;;
14342;SDS011;7255;53.596;9.960;2023-03-09T12:31:42;6.67;;;6.07;;
14342;SDS011;7255;53.596;9.960;2023-03-09T12:34:26;6.43;;;5.67;;
14342;SDS011;7255;53.596;9.960;2023-03-09T12:40:17;6.47;;;5.53;;
14342;SDS011;7255;53.596;9.960;2023-03-09T12:42:47;6.80;;;5.50;;
14342;SDS011;7255;53.596;9.960;2023-03-09T12:45:26;6.12;;;5.47;;
14342;SDS011;7255;53.596;9.960;2023-03-09T12:47:56;5.82;;;5.22;;
14342;SDS011;7255;53.596;9.960;2023-03-09T12:50:26;5.62;;;5.12;;
14342;SDS011;7255;53.596;9.960;2023-03-09T12:53:06;5.68;;;5.12;;
14342;SDS011;7255;53.596;9.960;2023-03-09T12:55:44;5.78;;;5.15;;
14342;SDS011;7255;53.596;9.960;2023-03-09T13:01:05;6.07;;;5.50;;
14342;SDS011;7255;53.596;9.960;2023-03-09T13:03:37;8.05;;;5.35;;
14342;SDS011;7255;53.596;9.960;2023-03-09T13:06:19;9.85;;;5.40;;
14342;SDS011;7255;53.596;9.960;2023-03-09T13:08:49;6.45;;;5.40;;
14342;SDS011;7255;53.596;9.960;2023-03-09T13:11:29;5.50;;;5.00;;
14342;SDS011;7255;53.596;9.960;2023-03-09T13:14:01;6.10;;;5.45;;
14342;SDS011;7255;53.596;9.960;2023-03-09T13:22:19;5.82;;;4.82;;
14342;SDS011;7255;53.596;9.960;2023-03-09T13:24:48;6.90;;;5.40;;
14342;SDS011;7255;53.596;9.960;2023-03-09T13:27:21;5.93;;;5.12;;
14342;SDS011;7255;53.596;9.960;2023-03-09T13:29:51;7.75;;;5.68;;
14342;SDS011;7255;53.596;9.960;2023-03-09T13:32:23;5.68;;;5.18;;
14342;SDS011;7255;53.596;9.960;2023-03-09T13:34:53;7.12;;;6.30;;
14342;SDS011;7255;53.596;9.960;2023-03-09T13:37:22;5.40;;;4.90;;
14342;SDS011;7255;53.596;9.960;2023-03-09T13:39:58;7.53;;;5.47;;
14342;SDS011;7255;53.596;9.960;2023-03-09T13:42:26;6.10;;;5.03;;
14342;SDS011;7255;53.596;9.960;2023-03-09T13:44:55;6.22;;;5.62;;
14342;SDS011;7255;53.596;9.960;2023-03-09T13:47:23;7.43;;;5.72;;
14342;SDS011;7255;53.596;9.960;2023-03-09T13:49:51;7.15;;;6.45;;
14342;SDS011;7255;53.596;9.960;2023-03-09T13:52:19;6.40;;;5.70;;
14342;SDS011;7255;53.596;9.960;2023-03-09T13:54:49;5.87;;;5.18;;
14342;SDS011;7255;53.596;9.960;2023-03-09T13:57:18;6.78;;;5.57;;
14342;SDS011;7255;53.596;9.960;2023-03-09T13:59:52;5.95;;;5.35;;
14342;SDS011;7255;53.596;9.960;2023-03-09T14:02:21;5.68;;;5.12;;
14342;SDS011;7255;53.596;9.960;2023-03-09T14:04:49;6.95;;;5.43;;
14342;SDS011;7255;53.596;9.960;2023-03-09T14:07:29;5.75;;;4.97;;
14342;SDS011;7255;53.596;9.960;2023-03-09T14:09:58;6.53;;;5.47;;
14342;SDS011;7255;53.596;9.960;2023-03-09T14:12:27;6.05;;;5.55;;
14342;SDS011;7255;53.596;9.960;2023-03-09T14:14:55;7.78;;;5.57;;
14342;SDS011;7255;53.596;9.960;2023-03-09T14:17:26;6.28;;;5.68;;
14342;SDS011;7255;53.596;9.960;2023-03-09T14:19:53;7.63;;;5.67;;
14342;SDS011;7255;53.596;9.960;2023-03-09T14:22:21;7.32;;;5.90;;
14342;SDS011;7255;53.596;9.960;2023-03-09T14:24:52;8.00;;;6.53;;
14342;SDS011;7255;53.596;9.960;2023-03-09T14:27:21;7.22;;;6.00;;
14342;SDS011;7255;53.596;9.960;2023-03-09T14:29:50;5.70;;;5.20;;
14342;SDS011;7255;53.596;9.960;2023-03-09T14:32:20;7.43;;;6.30;;
14342;SDS011;7255;53.596;9.960;2023-03-09T14:34:49;6.12;;;5.53;;
14342;SDS011;7255;53.596;9.960;2023-03-09T14:37:19;6.80;;;5.70;;
14342;SDS011;7255;53.596;9.960;2023-03-09T14:39:49;6.53;;;5.90;;
14342;SDS011;7255;53.596;9.960;2023-03-09T14:42:17;6.90;;;5.90;;
14342;SDS011;7255;53.596;9.960;2023-03-09T14:44:59;7.83;;;6.13;;
14342;SDS011;7255;53.596;9.960;2023-03-09T14:47:29;6.57;;;5.97;;
14342;SDS011;7255;53.596;9.960;2023-03-09T14:49:57;7.77;;;5.53;;
14342;SDS011;7255;53.596;9.960;2023-03-09T14:52:23;6.30;;;5.57;;
14342;SDS011;7255;53.596;9.960;2023-03-09T14:54:52;6.93;;;6.10;;
14342;SDS011;7255;53.596;9.960;2023-03-09T14:57:18;6.80;;;6.10;;
14342;SDS011;7255;53.596;9.960;2023-03-09T14:59:45;6.33;;;5.73;;
14342;SDS011;7255;53.596;9.960;2023-03-09T15:02:13;6.90;;;5.90;;
14342;SDS011;7255;53.596;9.960;2023-03-09T15:04:41;8.20;;;6.57;;
14342;SDS011;7255;53.596;9.960;2023-03-09T15:07:11;6.23;;;5.67;;
14342;SDS011;7255;53.596;9.960;2023-03-09T15:09:39;6.63;;;5.93;;
14342;SDS011;7255;53.596;9.960;2023-03-09T15:12:09;6.17;;;5.57;;
14342;SDS011;7255;53.596;9.960;2023-03-09T15:14:37;8.23;;;6.83;;
14342;SDS011;7255;53.596;9.960;2023-03-09T15:17:05;8.67;;;6.83;;
14342;SDS011;7255;53.596;9.960;2023-03-09T15:19:32;7.57;;;5.40;;
14342;SDS011;7255;53.596;9.960;2023-03-09T15:21:59;10.40;;;6.40;;
14342;SDS011;7255;53.596;9.960;2023-03-09T15:24:27;8.40;;;6.20;;